createdAt,value
2019-01-24T00:00:16.355Z,146275.80
2019-01-24T00:01:22.774Z,146268.92
2019-01-24T00:02:29.208Z,146260.16
2019-01-24T00:03:35.511Z,146241.98
2019-01-24T00:04:41.469Z,146231.33
2019-01-24T00:05:47.814Z,146230.70
2019-01-24T00:06:54.127Z,146231.97
2019-01-24T00:08:00.143Z,146237.00
2019-01-24T00:09:05.832Z,146215.69
2019-01-24T00:10:11.544Z,146222.56
2019-01-24T00:11:17.721Z,146216.31
2019-01-24T00:12:24.094Z,146210.06
2019-01-24T00:13:30.471Z,146210.06
2019-01-24T00:14:36.885Z,146207.55
2019-01-24T00:15:42.874Z,146205.09
2019-01-24T00:16:49.233Z,146196.31
2019-01-24T00:17:55.639Z,146176.27
2019-01-24T00:19:02.005Z,146149.34
2019-01-24T00:20:07.660Z,146124.31
2019-01-24T00:21:13.975Z,146104.91
2019-01-24T00:22:20.336Z,146089.89
2019-01-24T00:23:26.689Z,146100.55
2019-01-24T00:24:33.084Z,146095.56
2019-01-24T00:25:39.426Z,146096.19
2019-01-24T00:26:45.761Z,146097.41
2019-01-24T00:27:52.115Z,146095.56
2019-01-24T00:28:58.510Z,146084.91
2019-01-24T00:30:04.183Z,146076.16
2019-01-24T00:31:10.538Z,146081.13
2019-01-24T00:32:16.961Z,146079.88
2019-01-24T00:33:23.300Z,146068.64
2019-01-24T00:34:29.624Z,146061.14
2019-01-24T00:35:36.043Z,146060.52
2019-01-24T00:36:42.340Z,146059.25
2019-01-24T00:37:48.693Z,146059.88
2019-01-24T00:38:55.103Z,146047.97
2019-01-24T00:40:01.464Z,146034.23
2019-01-24T00:41:07.836Z,146034.23
2019-01-24T00:42:14.178Z,146021.70
2019-01-24T00:43:20.586Z,146004.22
2019-01-24T00:44:27.011Z,145998.61
2019-01-24T00:45:33.329Z,145988.59
2019-01-24T00:46:39.728Z,145967.36
2019-01-24T00:47:46.084Z,145962.95
2019-01-24T00:48:52.480Z,145977.37
2019-01-24T00:49:58.783Z,145976.11
2019-01-24T00:51:05.142Z,145989.86
2019-01-24T00:52:11.441Z,145976.75
2019-01-24T00:53:17.779Z,145957.34
2019-01-24T00:54:24.111Z,145950.47
2019-01-24T00:55:30.428Z,145940.45
2019-01-24T00:56:36.755Z,145917.33
2019-01-24T00:57:42.379Z,145909.20
2019-01-24T00:58:48.730Z,145919.22
2019-01-24T00:59:55.117Z,145911.09
2019-01-24T01:01:00.757Z,145904.81
2019-01-24T01:02:07.133Z,145920.47
2019-01-24T01:03:13.495Z,145901.08
2019-01-24T01:04:19.503Z,145906.69
2019-01-24T01:05:28.733Z,145896.05
2019-01-24T01:06:35.045Z,145882.94
2019-01-24T01:07:40.688Z,145886.09
2019-01-24T01:08:47.573Z,145886.72
2019-01-24T01:09:54.606Z,145891.69
2019-01-24T01:11:00.654Z,145906.06
2019-01-24T01:12:06.297Z,145886.72
2019-01-24T01:13:12.693Z,145859.81
2019-01-24T01:14:19.025Z,145849.19
2019-01-24T01:15:25.135Z,145834.19
2019-01-24T01:16:31.670Z,145808.56
2019-01-24T01:17:38.028Z,145784.81
2019-01-24T01:18:44.418Z,145769.20
2019-01-24T01:19:50.740Z,145763.55
2019-01-24T01:20:56.394Z,145765.42
2019-01-24T01:22:02.378Z,145761.08
2019-01-24T01:23:08.293Z,145757.94
2019-01-24T01:24:14.721Z,145757.94
2019-01-24T01:25:20.419Z,145761.66
2019-01-24T01:26:26.769Z,145767.31
2019-01-24T01:27:32.447Z,145772.92
2019-01-24T01:28:38.478Z,145774.19
2019-01-24T01:29:44.495Z,145772.30
2019-01-24T01:30:50.800Z,145784.81
2019-01-24T01:31:56.845Z,145774.81
2019-01-24T01:33:03.198Z,145767.94
2019-01-24T01:34:09.217Z,145757.94
2019-01-24T01:35:14.834Z,145756.69
2019-01-24T01:36:21.169Z,145745.41
2019-01-24T01:37:27.540Z,145743.58
2019-01-24T01:38:33.923Z,145744.20
2019-01-24T01:39:40.237Z,145757.31
2019-01-24T01:40:46.539Z,145782.30
2019-01-24T01:41:52.887Z,145783.56
2019-01-24T01:42:59.196Z,145780.41
2019-01-24T01:44:04.862Z,145759.81
2019-01-24T01:45:11.573Z,145776.69
2019-01-24T01:46:17.907Z,145769.83
2019-01-24T01:47:24.610Z,145783.56
2019-01-24T01:48:30.976Z,145768.56
2019-01-24T01:49:37.011Z,145746.67
2019-01-24T01:50:43.533Z,145746.67
2019-01-24T01:51:49.492Z,145744.20
2019-01-24T01:52:55.480Z,145751.06
2019-01-24T01:54:01.805Z,145739.81
2019-01-24T01:55:07.486Z,145742.31
2019-01-24T01:56:13.852Z,145739.17
2019-01-24T01:57:20.544Z,145729.17
2019-01-24T01:58:26.885Z,145706.06
2019-01-24T01:59:33.266Z,145719.22
2019-01-24T02:00:38.947Z,145726.70
2019-01-24T02:01:44.248Z,145731.69
2019-01-24T02:02:49.871Z,145732.31
2019-01-24T02:03:55.907Z,145736.08
2019-01-24T02:05:02.269Z,145734.20
2019-01-24T02:06:08.662Z,145740.44
2019-01-24T02:07:14.984Z,145754.80
2019-01-24T02:08:21.322Z,145767.31
2019-01-24T02:09:27.713Z,145780.41
2019-01-24T02:10:34.114Z,145784.19
2019-01-24T02:11:40.498Z,145793.56
2019-01-24T02:12:47.218Z,145789.80
2019-01-24T02:13:53.254Z,145799.17
2019-01-24T02:14:59.220Z,145804.16
2019-01-24T02:16:05.230Z,145809.19
2019-01-24T02:17:11.619Z,145816.69
2019-01-24T02:18:17.290Z,145816.69
2019-01-24T02:19:23.694Z,145813.53
2019-01-24T02:20:30.022Z,145819.83
2019-01-24T02:21:36.383Z,145818.56
2019-01-24T02:22:42.430Z,145815.42
2019-01-24T02:23:49.774Z,145828.53
2019-01-24T02:24:56.165Z,145829.16
2019-01-24T02:26:02.499Z,145830.42
2019-01-24T02:27:08.827Z,145839.80
2019-01-24T02:28:15.242Z,145847.92
2019-01-24T02:29:21.667Z,145860.45
2019-01-24T02:30:27.389Z,145872.92
2019-01-24T02:31:33.372Z,145877.95
2019-01-24T02:32:39.709Z,145901.08
2019-01-24T02:33:46.083Z,145907.95
2019-01-24T02:34:52.458Z,145917.97
2019-01-24T02:35:58.874Z,145908.58
2019-01-24T02:37:04.532Z,145894.84
2019-01-24T02:38:10.885Z,145900.45
2019-01-24T02:39:17.269Z,145906.06
2019-01-24T02:40:23.064Z,145916.70
2019-01-24T02:41:29.440Z,145907.95
2019-01-24T02:42:35.472Z,145918.59
2019-01-24T02:43:41.848Z,145928.59
2019-01-24T02:44:48.217Z,145925.47
2019-01-24T02:45:54.674Z,145932.33
2019-01-24T02:47:01.038Z,145940.45
2019-01-24T02:48:07.406Z,145942.97
2019-01-24T02:49:13.824Z,145938.56
2019-01-24T02:50:19.511Z,145956.72
2019-01-24T02:51:25.830Z,145965.47
2019-01-24T02:52:32.138Z,145976.11
2019-01-24T02:53:38.448Z,145979.84
2019-01-24T02:54:44.852Z,145984.25
2019-01-24T02:55:51.483Z,145990.48
2019-01-24T02:56:57.872Z,145982.98
2019-01-24T02:58:03.892Z,145994.89
2019-01-24T02:59:10.351Z,145996.72
2019-01-24T03:00:16.017Z,146009.27
2019-01-24T03:01:22.445Z,146014.83
2019-01-24T03:02:28.650Z,146031.72
2019-01-24T03:03:35.069Z,146056.11
2019-01-24T03:04:41.429Z,146068.64
2019-01-24T03:05:47.816Z,146058.00
2019-01-24T03:06:54.262Z,146054.27
2019-01-24T03:08:00.659Z,146059.88
2019-01-24T03:09:06.333Z,146067.39
2019-01-24T03:10:12.065Z,146063.61
2019-01-24T03:11:18.513Z,146058.00
2019-01-24T03:12:24.871Z,146073.00
2019-01-24T03:13:31.215Z,146062.41
2019-01-24T03:14:37.594Z,146062.41
2019-01-24T03:15:44.029Z,146061.14
2019-01-24T03:16:50.095Z,146059.25
2019-01-24T03:17:56.177Z,146063.61
2019-01-24T03:19:02.607Z,146074.27
2019-01-24T03:20:08.337Z,146088.00
2019-01-24T03:21:14.715Z,146093.67
2019-01-24T03:22:20.741Z,146096.77
2019-01-24T03:23:27.168Z,146088.00
2019-01-24T03:24:33.602Z,146081.13
2019-01-24T03:25:40.160Z,146088.64
2019-01-24T03:26:46.271Z,146087.44
2019-01-24T03:27:52.692Z,146091.78
2019-01-24T03:28:59.118Z,146093.05
2019-01-24T03:30:11.149Z,146089.89
2019-01-24T03:31:17.532Z,146089.27
2019-01-24T03:32:23.979Z,146093.05
2019-01-24T03:33:30.373Z,146092.41
2019-01-24T03:34:36.791Z,146093.05
2019-01-24T03:35:42.817Z,146099.92
2019-01-24T03:36:49.258Z,146096.77
2019-01-24T03:37:55.228Z,146103.69
2019-01-24T03:39:01.618Z,146104.91
2019-01-24T03:40:06.961Z,146102.44
2019-01-24T03:41:13.069Z,146103.06
2019-01-24T03:42:19.094Z,146105.53
2019-01-24T03:43:25.178Z,146104.33
2019-01-24T03:44:31.598Z,146108.69
2019-01-24T03:45:38.102Z,146119.33
2019-01-24T03:46:44.548Z,146113.03
2019-01-24T03:47:51.123Z,146114.92
2019-01-24T03:48:57.624Z,146115.55
2019-01-24T03:50:03.428Z,146119.97
2019-01-24T03:51:09.811Z,146119.97
2019-01-24T03:52:16.176Z,146124.94
2019-01-24T03:53:22.520Z,146129.34
2019-01-24T03:54:28.876Z,146139.33
2019-01-24T03:55:35.256Z,146129.94
2019-01-24T03:56:41.609Z,146121.80
2019-01-24T03:57:47.303Z,146119.97
2019-01-24T03:58:53.716Z,146123.69
2019-01-24T04:00:00.367Z,146128.72
2019-01-24T04:01:06.592Z,146127.47
2019-01-24T04:02:12.702Z,146136.86
2019-01-24T04:03:18.736Z,146134.34
2019-01-24T04:04:24.443Z,146134.97
2019-01-24T04:05:30.879Z,146137.48
2019-01-24T04:06:37.412Z,146137.48
2019-01-24T04:07:43.791Z,146136.86
2019-01-24T04:08:50.122Z,146149.34
2019-01-24T04:09:56.607Z,146146.83
2019-01-24T04:11:03.053Z,146145.63
2019-01-24T04:12:09.428Z,146142.47
2019-01-24T04:13:15.822Z,146160.63
2019-01-24T04:14:21.865Z,146158.75
2019-01-24T04:15:28.317Z,146154.38
2019-01-24T04:16:34.791Z,146158.11
2019-01-24T04:17:40.816Z,146158.11
2019-01-24T04:18:47.246Z,146161.25
2019-01-24T04:19:53.644Z,146159.37
2019-01-24T04:20:59.982Z,146159.37
2019-01-24T04:22:06.358Z,146164.36
2019-01-24T04:23:12.749Z,146171.28
2019-01-24T04:24:19.191Z,146176.27
2019-01-24T04:25:25.314Z,146173.75
2019-01-24T04:26:31.810Z,146176.27
2019-01-24T04:27:38.263Z,146176.27
2019-01-24T04:28:44.717Z,146181.89
2019-01-24T04:29:51.010Z,146188.77
2019-01-24T04:30:57.427Z,146188.77
2019-01-24T04:32:03.804Z,146185.03
2019-01-24T04:33:10.222Z,146181.25
2019-01-24T04:34:16.643Z,146176.91
2019-01-24T04:35:23.026Z,146178.16
2019-01-24T04:36:29.512Z,146181.25
2019-01-24T04:37:35.981Z,146180.05
2019-01-24T04:38:42.416Z,146180.05
2019-01-24T04:39:48.867Z,146181.89
2019-01-24T04:40:55.339Z,146181.89
2019-01-24T04:42:01.411Z,146183.78
2019-01-24T04:43:07.738Z,146184.41
2019-01-24T04:44:14.139Z,146185.66
2019-01-24T04:45:19.828Z,146187.56
2019-01-24T04:46:26.210Z,146183.78
2019-01-24T04:47:32.640Z,146188.19
2019-01-24T04:48:38.698Z,146188.77
2019-01-24T04:49:45.125Z,146190.02
2019-01-24T04:50:51.613Z,146199.42
2019-01-24T04:51:57.982Z,146215.69
2019-01-24T04:53:04.500Z,146210.70
2019-01-24T04:54:11.087Z,146206.92
2019-01-24T04:55:16.786Z,146208.81
2019-01-24T04:56:23.229Z,146211.33
2019-01-24T04:57:29.618Z,146233.22
2019-01-24T04:58:36.051Z,146224.45
2019-01-24T04:59:42.221Z,146219.47
2019-01-24T05:00:48.661Z,146219.47
2019-01-24T05:01:55.308Z,146223.83
2019-01-24T05:03:01.800Z,146228.86
2019-01-24T05:04:08.648Z,146225.72
2019-01-24T05:05:15.462Z,146229.50
2019-01-24T05:06:21.857Z,146228.23
2019-01-24T05:07:27.889Z,146233.84
2019-01-24T05:08:34.244Z,146231.33
2019-01-24T05:09:40.577Z,146231.33
2019-01-24T05:10:46.648Z,146235.73
2019-01-24T05:11:52.981Z,146262.67
2019-01-24T05:12:59.336Z,146255.16
2019-01-24T05:14:05.045Z,146243.25
2019-01-24T05:15:10.713Z,146239.47
2019-01-24T05:16:17.114Z,146241.98
2019-01-24T05:17:23.559Z,146240.09
2019-01-24T05:18:29.608Z,146250.13
2019-01-24T05:19:35.997Z,146252.02
2019-01-24T05:20:42.381Z,146248.86
2019-01-24T05:21:48.746Z,146257.00
2019-01-24T05:22:55.111Z,146261.41
2019-01-24T05:24:01.539Z,146262.05
2019-01-24T05:25:07.990Z,146258.27
2019-01-24T05:26:14.365Z,146252.64
2019-01-24T05:27:20.798Z,146255.16
2019-01-24T05:28:27.198Z,146262.05
2019-01-24T05:29:33.600Z,146268.28
2019-01-24T05:30:40.062Z,146268.92
2019-01-24T05:31:46.606Z,146264.52
2019-01-24T05:32:53.206Z,146265.14
2019-01-24T05:33:59.589Z,146275.80
2019-01-24T05:35:05.305Z,146278.31
2019-01-24T05:36:11.663Z,146270.19
2019-01-24T05:37:18.092Z,146268.28
2019-01-24T05:38:24.546Z,146265.14
2019-01-24T05:39:30.988Z,146261.41
2019-01-24T05:40:37.394Z,146265.14
2019-01-24T05:41:43.862Z,146262.67
2019-01-24T05:42:50.222Z,146265.14
2019-01-24T05:43:56.727Z,146267.66
2019-01-24T05:45:02.819Z,146262.05
2019-01-24T05:46:09.228Z,146268.92
2019-01-24T05:47:15.700Z,146268.92
2019-01-24T05:48:22.168Z,146272.66
2019-01-24T05:49:28.764Z,146277.69
2019-01-24T05:50:35.184Z,146274.53
2019-01-24T05:51:41.576Z,146283.94
2019-01-24T05:52:47.916Z,146294.59
2019-01-24T05:53:54.359Z,146286.45
2019-01-24T05:55:00.780Z,146286.45
2019-01-24T05:56:07.278Z,146297.11
2019-01-24T05:57:13.587Z,146303.36
2019-01-24T05:58:19.939Z,146308.98
2019-01-24T05:59:26.372Z,146312.13
2019-01-24T06:00:32.598Z,146318.38
2019-01-24T06:01:38.704Z,146324.62
2019-01-24T06:02:44.734Z,146319.64
2019-01-24T06:03:51.146Z,146318.38
2019-01-24T06:04:57.194Z,146320.27
2019-01-24T06:06:03.259Z,146324.00
2019-01-24T06:07:09.600Z,146322.16
2019-01-24T06:08:16.355Z,146333.41
2019-01-24T06:09:22.727Z,146322.73
2019-01-24T06:10:29.101Z,146327.16
2019-01-24T06:11:35.443Z,146329.03
2019-01-24T06:12:41.104Z,146334.03
2019-01-24T06:13:47.455Z,146333.41
2019-01-24T06:14:53.762Z,146334.66
2019-01-24T06:16:00.127Z,146332.77
2019-01-24T06:17:06.455Z,146335.28
2019-01-24T06:18:12.817Z,146336.55
2019-01-24T06:19:19.208Z,146337.81
2019-01-24T06:20:25.585Z,146344.06
2019-01-24T06:21:31.656Z,146348.42
2019-01-24T06:22:38.017Z,146348.42
2019-01-24T06:23:44.333Z,146349.69
2019-01-24T06:24:51.224Z,146356.56
2019-01-24T06:25:57.590Z,146365.33
2019-01-24T06:27:03.581Z,146374.09
2019-01-24T06:28:10.000Z,146377.25
2019-01-24T06:29:16.996Z,146401.67
2019-01-24T06:30:22.652Z,146402.94
2019-01-24T06:31:29.018Z,146402.94
2019-01-24T06:32:35.410Z,146404.83
2019-01-24T06:33:41.883Z,146411.08
2019-01-24T06:34:48.387Z,146416.06
2019-01-24T06:35:54.776Z,146417.97
2019-01-24T06:37:01.135Z,146424.22
2019-01-24T06:38:07.498Z,146434.87
2019-01-24T06:39:13.859Z,146439.28
2019-01-24T06:40:19.834Z,146438.66
2019-01-24T06:41:26.234Z,146442.39
2019-01-24T06:42:32.647Z,146450.53
2019-01-24T06:43:39.025Z,146454.94
2019-01-24T06:44:45.361Z,146461.19
2019-01-24T06:45:52.643Z,146458.67
2019-01-24T06:46:59.010Z,146468.08
2019-01-24T06:48:04.698Z,146467.45
2019-01-24T06:49:11.068Z,146470.59
2019-01-24T06:50:16.694Z,146466.81
2019-01-24T06:51:23.071Z,146470.59
2019-01-24T06:52:29.399Z,146473.70
2019-01-24T06:53:35.759Z,146474.34
2019-01-24T06:54:42.816Z,146483.73
2019-01-24T06:55:49.160Z,146490.62
2019-01-24T06:56:55.166Z,146498.77
2019-01-24T06:58:01.557Z,146503.19
2019-01-24T06:59:07.950Z,146508.17
2019-01-24T07:00:13.562Z,146536.39
2019-01-24T07:01:19.943Z,146518.20
2019-01-24T07:02:26.302Z,146504.44
2019-01-24T07:03:32.614Z,146511.33
2019-01-24T07:04:38.983Z,146516.95
2019-01-24T07:05:45.364Z,146534.50
2019-01-24T07:06:51.794Z,146522.00
2019-01-24T07:07:58.103Z,146515.11
2019-01-24T07:09:03.562Z,146505.06
2019-01-24T07:10:09.220Z,146503.19
2019-01-24T07:11:15.580Z,146502.55
2019-01-24T07:12:21.936Z,146505.06
2019-01-24T07:13:29.804Z,146506.95
2019-01-24T07:14:37.463Z,146506.33
2019-01-24T07:15:43.885Z,146513.22
2019-01-24T07:16:50.352Z,146511.33
2019-01-24T07:17:56.366Z,146503.19
2019-01-24T07:19:02.743Z,146505.06
2019-01-24T07:20:08.501Z,146510.06
2019-01-24T07:21:14.898Z,146508.80
2019-01-24T07:22:21.289Z,146510.06
2019-01-24T07:23:27.613Z,146511.95
2019-01-24T07:24:33.958Z,146515.11
2019-01-24T07:25:40.384Z,146515.11
2019-01-24T07:26:46.775Z,146515.69
2019-01-24T07:27:52.494Z,146515.69
2019-01-24T07:28:58.811Z,146519.47
2019-01-24T07:30:08.325Z,146519.47
2019-01-24T07:31:14.705Z,146518.84
2019-01-24T07:32:21.178Z,146520.09
2019-01-24T07:33:27.764Z,146520.73
2019-01-24T07:34:34.937Z,146521.36
2019-01-24T07:35:41.463Z,146537.02
2019-01-24T07:36:47.570Z,146533.88
2019-01-24T07:37:53.907Z,146526.36
2019-01-24T07:39:00.325Z,146523.83
2019-01-24T07:40:05.993Z,146526.36
2019-01-24T07:41:12.361Z,146530.14
2019-01-24T07:42:18.715Z,146528.25
2019-01-24T07:43:25.073Z,146528.87
2019-01-24T07:44:31.504Z,146532.03
2019-01-24T07:45:37.184Z,146533.88
2019-01-24T07:46:43.567Z,146531.41
2019-01-24T07:47:49.924Z,146537.02
2019-01-24T07:48:56.314Z,146537.66
2019-01-24T07:50:02.306Z,146533.23
2019-01-24T07:51:08.689Z,146533.23
2019-01-24T07:52:15.073Z,146534.50
2019-01-24T07:53:21.457Z,146537.66
2019-01-24T07:54:27.787Z,146537.66
2019-01-24T07:55:34.912Z,146540.75
2019-01-24T07:56:41.954Z,146540.17
2019-01-24T07:57:48.053Z,146556.47
2019-01-24T07:58:54.381Z,146550.16
2019-01-24T08:00:00.750Z,146564.61
2019-01-24T08:01:07.151Z,146557.09
2019-01-24T08:02:13.528Z,146555.84
2019-01-24T08:03:19.919Z,146553.31
2019-01-24T08:04:26.279Z,146548.91
2019-01-24T08:05:32.641Z,146553.31
2019-01-24T08:06:39.011Z,146553.31
2019-01-24T08:07:44.675Z,146553.31
2019-01-24T08:08:51.088Z,146552.69
2019-01-24T08:09:57.478Z,146555.20
2019-01-24T08:11:03.872Z,146562.72
2019-01-24T08:12:10.227Z,146564.61
2019-01-24T08:13:16.628Z,146580.91
2019-01-24T08:14:23.427Z,146592.16
2019-01-24T08:15:29.455Z,146580.91
2019-01-24T08:16:35.478Z,146582.75
2019-01-24T08:17:41.761Z,146580.91
2019-01-24T08:18:50.030Z,146575.86
2019-01-24T08:19:57.319Z,146577.13
2019-01-24T08:21:03.318Z,146571.50
2019-01-24T08:22:08.981Z,146577.75
2019-01-24T08:23:15.350Z,146578.38
2019-01-24T08:24:21.737Z,146589.05
2019-01-24T08:25:27.439Z,146589.69
2019-01-24T08:26:33.739Z,146589.05
2019-01-24T08:27:39.729Z,146599.09
2019-01-24T08:28:45.717Z,146619.75
2019-01-24T08:29:52.178Z,146612.88
2019-01-24T08:30:58.489Z,146609.09
2019-01-24T08:32:04.098Z,146629.80
2019-01-24T08:33:10.485Z,146612.23
2019-01-24T08:34:16.821Z,146604.09
2019-01-24T08:35:22.445Z,146607.23
2019-01-24T08:36:28.775Z,146634.78
2019-01-24T08:37:35.172Z,146622.28
2019-01-24T08:38:41.570Z,146627.91
2019-01-24T08:39:47.917Z,146609.09
2019-01-24T08:40:54.258Z,146614.13
2019-01-24T08:42:00.604Z,146617.86
2019-01-24T08:43:07.019Z,146612.23
2019-01-24T08:44:13.355Z,146617.23
2019-01-24T08:45:19.021Z,146611.61
2019-01-24T08:46:25.355Z,146607.83
2019-01-24T08:47:31.710Z,146608.45
2019-01-24T08:48:38.086Z,146611.61
2019-01-24T08:49:44.508Z,146610.97
2019-01-24T08:50:50.868Z,146617.23
2019-01-24T08:51:57.198Z,146616.02
2019-01-24T08:53:03.592Z,146616.02
2019-01-24T08:54:09.939Z,146609.72
2019-01-24T08:55:17.021Z,146617.86
2019-01-24T08:56:23.376Z,146614.75
2019-01-24T08:57:29.675Z,146618.50
2019-01-24T08:58:36.070Z,146612.23
2019-01-24T08:59:42.433Z,146629.16
2019-01-24T09:00:48.428Z,146631.06
2019-01-24T09:01:55.578Z,146627.28
2019-01-24T09:03:01.983Z,146630.42
2019-01-24T09:04:08.363Z,146658.61
2019-01-24T09:05:14.011Z,146648.63
2019-01-24T09:06:22.618Z,146651.72
2019-01-24T09:07:26.433Z,146665.55
2019-01-24T09:08:32.185Z,146650.45
2019-01-24T09:09:38.554Z,146634.78
2019-01-24T09:10:44.594Z,146636.69
2019-01-24T09:11:50.882Z,146647.36
2019-01-24T09:12:56.949Z,146650.45
2019-01-24T09:14:02.709Z,146652.98
2019-01-24T09:15:08.366Z,146657.39
2019-01-24T09:16:14.742Z,146660.50
2019-01-24T09:17:21.163Z,146657.97
2019-01-24T09:18:27.240Z,146671.17
2019-01-24T09:19:33.635Z,146674.33
2019-01-24T09:20:40.001Z,146676.17
2019-01-24T09:21:46.457Z,146668.66
2019-01-24T09:22:55.269Z,146653.61
2019-01-24T09:23:58.187Z,146649.25
2019-01-24T09:25:03.918Z,146648.63
2019-01-24T09:26:09.990Z,146659.23
2019-01-24T09:27:16.352Z,146666.17
2019-01-24T09:28:22.717Z,146678.06
2019-01-24T09:29:29.045Z,146674.91
2019-01-24T09:30:35.414Z,146674.33
2019-01-24T09:31:41.746Z,146685.58
2019-01-24T09:32:48.147Z,146674.91
2019-01-24T09:33:54.574Z,146674.91
2019-01-24T09:35:00.999Z,146675.53
2019-01-24T09:36:07.009Z,146676.80
2019-01-24T09:37:13.347Z,146681.22
2019-01-24T09:38:19.674Z,146675.53
2019-01-24T09:39:26.148Z,146678.06
2019-01-24T09:40:32.504Z,146683.11
2019-01-24T09:41:38.579Z,146696.89
2019-01-24T09:42:44.285Z,146695.00
2019-01-24T09:43:50.658Z,146698.14
2019-01-24T09:44:57.059Z,146696.89
2019-01-24T09:46:03.363Z,146688.09
2019-01-24T09:47:09.767Z,146690.62
2019-01-24T09:48:15.745Z,146695.00
2019-01-24T09:49:22.093Z,146688.73
2019-01-24T09:50:27.816Z,146693.73
2019-01-24T09:51:34.193Z,146706.30
2019-01-24T09:52:40.549Z,146728.86
2019-01-24T09:53:46.904Z,146734.48
2019-01-24T09:54:53.250Z,146715.72
2019-01-24T09:55:59.602Z,146711.92
2019-01-24T09:57:05.253Z,146740.80
2019-01-24T09:58:11.720Z,146723.86
2019-01-24T09:59:18.063Z,146732.64
2019-01-24T10:00:24.428Z,146726.97
2019-01-24T10:01:30.516Z,146701.87
2019-01-24T10:02:36.891Z,146702.52
2019-01-24T10:03:43.298Z,146705.67
2019-01-24T10:04:49.796Z,146694.36
2019-01-24T10:05:56.313Z,146695.63
2019-01-24T10:07:02.709Z,146699.41
2019-01-24T10:08:08.409Z,146710.66
2019-01-24T10:09:14.871Z,146729.50
2019-01-24T10:10:20.537Z,146735.75
2019-01-24T10:11:26.880Z,146738.28
2019-01-24T10:12:33.188Z,146752.69
2019-01-24T10:13:39.571Z,146749.58
2019-01-24T10:14:45.969Z,146735.75
2019-01-24T10:15:52.327Z,146731.38
2019-01-24T10:16:58.671Z,146725.70
2019-01-24T10:18:04.640Z,146705.67
2019-01-24T10:19:10.655Z,146732.64
2019-01-24T10:20:17.296Z,146737.02
2019-01-24T10:21:23.642Z,146719.44
2019-01-24T10:22:29.970Z,146711.92
2019-01-24T10:23:36.386Z,146718.81
2019-01-24T10:24:42.732Z,146713.19
2019-01-24T10:25:49.810Z,146715.08
2019-01-24T10:26:57.084Z,146716.92
2019-01-24T10:28:03.088Z,146713.19
2019-01-24T10:29:09.441Z,146717.56
2019-01-24T10:30:15.765Z,146728.22
2019-01-24T10:31:22.390Z,146715.72
2019-01-24T10:32:28.794Z,146715.72
2019-01-24T10:33:35.208Z,146733.28
2019-01-24T10:34:41.223Z,146727.59
2019-01-24T10:35:47.348Z,146760.20
2019-01-24T10:36:53.657Z,146747.06
2019-01-24T10:37:59.995Z,146741.42
2019-01-24T10:39:05.713Z,146745.16
2019-01-24T10:40:14.937Z,146738.91
2019-01-24T10:41:21.356Z,146743.27
2019-01-24T10:42:27.382Z,146735.75
2019-01-24T10:43:33.390Z,146742.64
2019-01-24T10:44:39.776Z,146743.91
2019-01-24T10:45:46.186Z,146748.95
2019-01-24T10:46:53.239Z,146736.38
2019-01-24T10:47:59.826Z,146741.42
2019-01-24T10:49:05.948Z,146738.28
2019-01-24T10:50:11.655Z,146747.06
2019-01-24T10:51:17.982Z,146747.06
2019-01-24T10:52:24.379Z,146756.47
2019-01-24T10:53:30.696Z,146759.58
2019-01-24T10:54:37.075Z,146771.52
2019-01-24T10:55:43.122Z,146780.94
2019-01-24T10:56:49.471Z,146774.67
2019-01-24T10:57:55.086Z,146770.89
2019-01-24T10:59:01.461Z,146777.78
2019-01-24T11:00:07.943Z,146767.73
2019-01-24T11:01:14.311Z,146760.84
2019-01-24T11:02:20.725Z,146768.36
2019-01-24T11:03:27.171Z,146770.25
2019-01-24T11:04:33.571Z,146782.83
2019-01-24T11:05:39.905Z,146785.94
2019-01-24T11:06:50.033Z,146814.81
2019-01-24T11:07:53.108Z,146809.75
2019-01-24T11:09:00.018Z,146802.86
2019-01-24T11:10:05.689Z,146796.61
2019-01-24T11:11:11.685Z,146776.52
2019-01-24T11:12:18.078Z,146772.78
2019-01-24T11:13:24.165Z,146765.88
2019-01-24T11:14:30.228Z,146762.72
2019-01-24T11:15:36.231Z,146753.94
2019-01-24T11:16:42.592Z,146760.84
2019-01-24T11:17:48.592Z,146779.67
2019-01-24T11:18:54.604Z,146786.56
2019-01-24T11:20:00.979Z,146790.34
2019-01-24T11:21:07.349Z,146812.28
2019-01-24T11:22:13.340Z,146815.44
2019-01-24T11:23:19.321Z,146816.06
2019-01-24T11:24:25.770Z,146802.86
2019-01-24T11:25:31.830Z,146792.81
2019-01-24T11:26:37.900Z,146789.72
2019-01-24T11:27:44.277Z,146797.88
2019-01-24T11:28:50.660Z,146792.23
2019-01-24T11:29:57.272Z,146779.03
2019-01-24T11:31:03.702Z,146778.41
2019-01-24T11:32:10.043Z,146774.03
2019-01-24T11:33:16.403Z,146788.45
2019-01-24T11:34:22.770Z,146813.55
2019-01-24T11:35:31.165Z,146813.55
2019-01-24T11:36:37.475Z,146821.69
2019-01-24T11:37:43.868Z,146805.39
2019-01-24T11:38:50.230Z,146806.02
2019-01-24T11:39:56.639Z,146799.12
2019-01-24T11:41:02.267Z,146799.77
2019-01-24T11:42:08.245Z,146800.39
2019-01-24T11:43:14.594Z,146804.13
2019-01-24T11:44:20.973Z,146829.22
2019-01-24T11:45:27.252Z,146821.06
2019-01-24T11:46:33.569Z,146816.70
2019-01-24T11:47:39.555Z,146810.39
2019-01-24T11:48:45.862Z,146802.23
2019-01-24T11:49:52.285Z,146822.97
2019-01-24T11:50:58.336Z,146818.55
2019-01-24T11:52:04.303Z,146810.39
2019-01-24T11:53:10.673Z,146823.59
2019-01-24T11:54:17.247Z,146829.22
2019-01-24T11:55:23.273Z,146833.64
2019-01-24T11:56:29.644Z,146839.28
2019-01-24T11:57:35.985Z,146831.75
2019-01-24T11:58:42.388Z,146834.86
2019-01-24T11:59:48.806Z,146838.64
2019-01-24T12:00:55.023Z,146837.37
2019-01-24T12:02:01.343Z,146835.48
2019-01-24T12:03:07.000Z,146814.17
2019-01-24T12:04:13.350Z,146809.75
2019-01-24T12:05:19.010Z,146806.66
2019-01-24T12:06:25.426Z,146810.39
2019-01-24T12:07:31.999Z,146811.66
2019-01-24T12:08:38.296Z,146806.66
2019-01-24T12:09:44.811Z,146802.86
2019-01-24T12:10:51.320Z,146803.50
2019-01-24T12:11:57.844Z,146840.53
2019-01-24T12:13:03.850Z,146832.38
2019-01-24T12:14:10.933Z,146838.64
2019-01-24T12:15:17.796Z,146824.84
2019-01-24T12:16:24.167Z,146829.22
2019-01-24T12:17:30.496Z,146826.06
2019-01-24T12:18:37.443Z,146806.66
2019-01-24T12:19:43.785Z,146800.97
2019-01-24T12:20:50.257Z,146800.97
2019-01-24T12:21:56.620Z,146811.02
2019-01-24T12:23:03.009Z,146814.17
2019-01-24T12:24:09.358Z,146831.11
2019-01-24T12:25:15.397Z,146811.66
2019-01-24T12:26:21.758Z,146814.81
2019-01-24T12:27:27.877Z,146792.81
2019-01-24T12:28:34.333Z,146792.81
2019-01-24T12:29:40.762Z,146807.28
2019-01-24T12:30:47.119Z,146821.69
2019-01-24T12:31:53.462Z,146836.12
2019-01-24T12:32:59.113Z,146836.12
2019-01-24T12:34:05.197Z,146830.48
2019-01-24T12:35:12.150Z,146824.84
2019-01-24T12:36:19.508Z,146818.55